createdAt,value
2022-10-05T00:01:28.928Z,96.86
2022-10-05T00:04:08.288Z,96.96
2022-10-05T00:06:37.131Z,96.81
2022-10-05T00:09:17.394Z,97.62
2022-10-05T00:11:46.550Z,98.78
2022-10-05T00:14:20.935Z,99.30
2022-10-05T00:16:51.621Z,99.05
2022-10-05T00:19:25.231Z,100.00
2022-10-05T00:21:53.556Z,100.00
2022-10-05T00:24:21.949Z,99.91
2022-10-05T00:26:55.390Z,99.97
2022-10-05T00:29:25.998Z,99.21
2022-10-05T00:31:55.724Z,98.88
2022-10-05T00:34:25.873Z,98.92
2022-10-05T00:36:54.103Z,98.42
2022-10-05T00:39:22.320Z,98.26
2022-10-05T00:42:24.323Z,98.99
2022-10-05T00:44:59.381Z,98.05
2022-10-05T00:47:50.790Z,97.86
2022-10-05T00:50:43.435Z,96.92
2022-10-05T00:53:28.357Z,95.95
2022-10-05T00:56:05.130Z,93.08
2022-10-05T00:58:50.015Z,92.50
2022-10-05T01:01:23.103Z,92.97
2022-10-05T01:04:03.322Z,93.19
2022-10-05T01:06:40.819Z,93.80
2022-10-05T01:09:19.605Z,95.16
2022-10-05T01:11:57.455Z,96.64
2022-10-05T01:14:34.647Z,95.27
2022-10-05T01:17:12.947Z,94.71
2022-10-05T01:20:18.306Z,94.75
2022-10-05T01:23:09.157Z,95.35
2022-10-05T01:25:47.892Z,95.09
2022-10-05T01:28:23.447Z,95.49
2022-10-05T01:31:01.336Z,95.36
2022-10-05T01:33:35.519Z,95.48
2022-10-05T01:36:13.284Z,96.09
2022-10-05T01:38:50.285Z,96.13
2022-10-05T01:41:32.137Z,96.51
2022-10-05T01:44:07.592Z,96.64
2022-10-05T01:46:41.955Z,95.47
2022-10-05T01:49:34.688Z,95.76
2022-10-05T01:52:23.865Z,95.05
2022-10-05T01:55:11.558Z,95.87
2022-10-05T01:57:55.375Z,96.60
2022-10-05T02:00:26.039Z,96.73
2022-10-05T02:03:04.314Z,96.91
2022-10-05T02:05:42.353Z,96.35
2022-10-05T02:08:16.048Z,96.30
2022-10-05T02:10:52.403Z,96.35
2022-10-05T02:13:26.910Z,96.55
2022-10-05T02:16:02.429Z,96.79
2022-10-05T02:18:36.988Z,96.70
2022-10-05T02:21:07.040Z,96.60
2022-10-05T02:23:41.118Z,95.21
2022-10-05T02:26:13.041Z,94.09
2022-10-05T02:28:47.733Z,93.08
2022-10-05T02:31:23.384Z,93.46
2022-10-05T02:33:51.672Z,92.96
2022-10-05T02:36:27.657Z,93.73
2022-10-05T02:39:06.043Z,93.83
2022-10-05T02:41:48.024Z,94.40
2022-10-05T02:44:27.562Z,94.54
2022-10-05T02:47:08.929Z,95.27
2022-10-05T02:49:46.270Z,94.96
2022-10-05T02:52:23.128Z,94.59
2022-10-05T02:55:01.899Z,94.15
2022-10-05T02:57:37.388Z,94.77
2022-10-05T03:00:10.249Z,95.40
2022-10-05T03:02:47.591Z,96.87
2022-10-05T03:05:25.054Z,98.71
2022-10-05T03:08:01.759Z,97.61
2022-10-05T03:10:39.127Z,96.64
2022-10-05T03:13:16.311Z,95.87
2022-10-05T03:16:25.716Z,95.58
2022-10-05T03:19:10.797Z,99.00
2022-10-05T03:21:54.870Z,99.64
2022-10-05T03:24:49.723Z,100.00
2022-10-05T03:27:33.253Z,100.00
2022-10-05T03:30:07.322Z,99.78
2022-10-05T03:32:52.369Z,99.70
2022-10-05T03:35:29.356Z,96.23
2022-10-05T03:38:09.648Z,94.99
2022-10-05T03:40:47.243Z,95.04
2022-10-05T03:43:54.589Z,94.67
2022-10-05T03:46:36.987Z,94.33
2022-10-05T03:49:15.887Z,93.46
2022-10-05T03:51:51.304Z,93.78
2022-10-05T03:54:24.876Z,93.57
2022-10-05T03:56:57.367Z,93.70
2022-10-05T03:59:32.822Z,93.34
2022-10-05T04:02:09.180Z,92.15
2022-10-05T04:04:45.175Z,93.08
2022-10-05T04:07:30.771Z,93.66
2022-10-05T04:10:01.802Z,94.25
2022-10-05T04:12:38.076Z,94.64
2022-10-05T04:15:19.281Z,95.52
2022-10-05T04:17:53.180Z,95.60
2022-10-05T04:20:26.878Z,97.12
2022-10-05T04:23:05.596Z,99.23
2022-10-05T04:25:40.917Z,98.45
2022-10-05T04:28:17.404Z,98.81
2022-10-05T04:30:51.681Z,97.32
2022-10-05T04:33:22.104Z,97.46
2022-10-05T04:36:20.378Z,97.89
2022-10-05T04:39:11.045Z,95.90
2022-10-05T04:41:57.225Z,96.82
2022-10-05T04:44:49.632Z,98.50
2022-10-05T04:48:09.400Z,97.63
2022-10-05T04:50:51.617Z,98.29
2022-10-05T04:53:31.314Z,97.69
2022-10-05T04:56:11.126Z,97.73
2022-10-05T04:59:01.775Z,96.24
2022-10-05T05:01:51.125Z,96.61
2022-10-05T05:04:43.178Z,96.92
2022-10-05T05:07:29.815Z,95.62
2022-10-05T05:10:35.844Z,95.74
2022-10-05T05:13:24.752Z,96.74
2022-10-05T05:15:59.011Z,95.97
2022-10-05T05:18:59.238Z,96.22
2022-10-05T05:21:41.898Z,96.07
2022-10-05T05:24:20.447Z,96.72
2022-10-05T05:27:15.379Z,96.14
2022-10-05T05:29:58.854Z,95.03
2022-10-05T05:32:41.097Z,95.45
2022-10-05T05:35:49.127Z,95.27
2022-10-05T05:38:31.437Z,95.00
2022-10-05T05:41:11.748Z,95.95
2022-10-05T05:44:01.018Z,95.80
2022-10-05T05:47:02.263Z,94.65
2022-10-05T05:49:37.387Z,95.96
2022-10-05T05:52:16.976Z,95.22
2022-10-05T05:54:52.834Z,95.40
2022-10-05T05:57:26.038Z,96.28
2022-10-05T06:00:06.172Z,95.86
2022-10-05T06:02:58.467Z,96.43
2022-10-05T06:05:35.129Z,96.97
2022-10-05T06:08:14.967Z,97.24
2022-10-05T06:10:51.908Z,97.56
2022-10-05T06:13:26.744Z,97.35
2022-10-05T06:16:00.115Z,98.68
2022-10-05T06:18:33.505Z,97.71
2022-10-05T06:21:06.829Z,99.46
2022-10-05T06:23:44.144Z,98.72
2022-10-05T06:26:26.463Z,99.15
2022-10-05T06:29:02.224Z,100.00
2022-10-05T06:31:59.174Z,100.00
2022-10-05T06:35:01.648Z,100.00
2022-10-05T06:38:09.688Z,100.00
2022-10-05T06:40:57.670Z,100.00
2022-10-05T06:43:48.056Z,100.00
2022-10-05T06:46:41.041Z,100.00
2022-10-05T06:49:53.728Z,100.00
2022-10-05T06:53:04.173Z,100.00
2022-10-05T06:55:43.609Z,100.00
2022-10-05T06:58:35.675Z,100.00
2022-10-05T07:01:12.030Z,100.00
2022-10-05T07:03:56.618Z,100.00
2022-10-05T07:06:36.720Z,100.00
2022-10-05T07:09:20.457Z,100.00
2022-10-05T07:12:18.828Z,100.00
2022-10-05T07:15:02.515Z,100.00
2022-10-05T07:17:46.175Z,100.00
2022-10-05T07:20:20.232Z,100.00
2022-10-05T07:23:09.707Z,100.00
2022-10-05T07:25:44.104Z,100.00
2022-10-05T07:28:20.506Z,100.00
2022-10-05T07:30:58.912Z,100.00
2022-10-05T07:33:35.484Z,100.00
2022-10-05T07:36:31.708Z,100.00
2022-10-05T07:39:08.661Z,100.00
2022-10-05T07:41:43.667Z,100.00
2022-10-05T07:44:17.192Z,100.00
2022-10-05T07:46:54.872Z,100.00
2022-10-05T07:49:35.601Z,100.00
2022-10-05T07:52:08.018Z,100.00
2022-10-05T07:54:47.307Z,100.00
2022-10-05T07:57:25.247Z,100.00
2022-10-05T07:59:59.628Z,100.00
2022-10-05T08:02:35.673Z,100.00
2022-10-05T08:05:10.997Z,100.00
2022-10-05T08:07:40.584Z,100.00
2022-10-05T08:10:27.696Z,100.00
2022-10-05T08:13:12.445Z,100.00
2022-10-05T08:15:44.054Z,100.00
2022-10-05T08:18:20.622Z,100.00
2022-10-05T08:20:53.065Z,100.00
2022-10-05T08:23:25.176Z,100.00
2022-10-05T08:26:09.705Z,100.00
2022-10-05T08:28:41.355Z,100.00
2022-10-05T08:31:18.452Z,100.00
2022-10-05T08:34:07.235Z,100.00
2022-10-05T08:36:54.105Z,100.00
2022-10-05T08:39:25.993Z,100.00
2022-10-05T08:42:42.401Z,99.64
2022-10-05T08:46:04.022Z,98.02
2022-10-05T08:49:30.626Z,98.11
2022-10-05T08:52:26.043Z,98.08
2022-10-05T08:55:24.321Z,96.74
2022-10-05T08:58:25.379Z,96.05
2022-10-05T09:01:03.149Z,96.02
2022-10-05T09:04:25.981Z,95.57
2022-10-05T09:07:18.519Z,95.09
2022-10-05T09:10:44.170Z,92.95
2022-10-05T09:13:31.430Z,93.36
2022-10-05T09:16:28.960Z,93.06
2022-10-05T09:19:36.906Z,91.70
2022-10-05T09:22:16.729Z,90.86
2022-10-05T09:24:57.510Z,89.75
2022-10-05T09:27:38.106Z,92.04
2022-10-05T09:30:27.942Z,90.76
2022-10-05T09:33:39.021Z,89.71
2022-10-05T09:36:53.966Z,86.23
2022-10-05T09:40:06.133Z,85.77
2022-10-05T09:43:03.267Z,85.07
2022-10-05T09:46:11.655Z,84.70
2022-10-05T09:49:29.505Z,83.77
2022-10-05T09:52:19.340Z,84.95
2022-10-05T09:55:45.295Z,84.05
2022-10-05T09:59:08.710Z,83.85
2022-10-05T10:02:29.779Z,83.50
2022-10-05T10:05:39.291Z,83.07
2022-10-05T10:08:27.932Z,82.43
2022-10-05T10:11:12.963Z,80.14
2022-10-05T10:14:12.266Z,79.03
2022-10-05T10:17:07.896Z,77.15
2022-10-05T10:20:07.034Z,77.04
2022-10-05T10:23:26.257Z,77.53
2022-10-05T10:26:16.509Z,75.88
2022-10-05T10:29:00.354Z,76.33
2022-10-05T10:32:04.502Z,75.61
2022-10-05T10:35:34.948Z,76.64
2022-10-05T10:38:30.272Z,74.92
2022-10-05T10:41:40.409Z,75.75
2022-10-05T10:45:11.405Z,74.73
2022-10-05T10:47:54.590Z,74.07
2022-10-05T10:50:57.997Z,74.24
2022-10-05T10:54:04.938Z,72.00
2022-10-05T10:57:00.194Z,72.58
2022-10-05T11:00:06.774Z,71.81
2022-10-05T11:03:02.260Z,71.55
2022-10-05T11:06:07.094Z,70.78
2022-10-05T11:09:25.704Z,70.17
2022-10-05T11:13:02.528Z,70.09
2022-10-05T11:16:20.510Z,68.81
2022-10-05T11:19:40.278Z,69.71
2022-10-05T11:22:39.426Z,69.05
2022-10-05T11:25:44.482Z,69.63
2022-10-05T11:28:39.562Z,69.87
2022-10-05T11:31:54.839Z,69.45
2022-10-05T11:34:53.173Z,69.71
2022-10-05T11:37:40.751Z,69.47
2022-10-05T11:40:38.732Z,70.05
2022-10-05T11:43:41.741Z,70.85
2022-10-05T11:46:18.352Z,70.22
2022-10-05T11:49:27.101Z,69.39
2022-10-05T11:52:07.814Z,69.80
2022-10-05T11:55:09.932Z,69.71
2022-10-05T11:57:46.664Z,69.11
2022-10-05T12:00:18.848Z,67.84
2022-10-05T12:03:33.383Z,68.08
2022-10-05T12:06:39.791Z,67.55
2022-10-05T12:09:25.000Z,67.32
2022-10-05T12:12:08.271Z,67.71
2022-10-05T12:14:50.702Z,66.99
2022-10-05T12:17:28.016Z,66.65
2022-10-05T12:20:02.534Z,66.90
2022-10-05T12:22:39.120Z,65.96
2022-10-05T12:25:23.888Z,66.75
2022-10-05T12:27:55.958Z,65.60
2022-10-05T12:30:35.377Z,64.82
2022-10-05T12:33:13.917Z,64.27
2022-10-05T12:35:51.812Z,64.16
2022-10-05T12:38:28.575Z,65.46
2022-10-05T12:41:09.025Z,63.85
2022-10-05T12:43:50.487Z,64.38
2022-10-05T12:46:31.920Z,64.03
2022-10-05T12:49:40.343Z,62.93
2022-10-05T12:52:29.313Z,63.08
2022-10-05T12:55:06.894Z,62.08
2022-10-05T12:57:48.181Z,63.38
2022-10-05T13:00:22.898Z,61.89
2022-10-05T13:02:57.153Z,61.69
2022-10-05T13:05:31.607Z,61.27
2022-10-05T13:08:19.068Z,60.63
2022-10-05T13:10:50.380Z,61.96
2022-10-05T13:13:38.397Z,58.74
2022-10-05T13:16:21.139Z,58.70
2022-10-05T13:19:03.435Z,59.80
2022-10-05T13:21:55.200Z,59.86
2022-10-05T13:24:26.686Z,60.20
2022-10-05T13:27:02.072Z,60.29
2022-10-05T13:29:38.728Z,60.12
2022-10-05T13:32:15.715Z,60.77
2022-10-05T13:34:52.527Z,60.32
2022-10-05T13:37:31.784Z,60.30
2022-10-05T13:40:15.885Z,60.99
2022-10-05T13:42:52.644Z,61.08
2022-10-05T13:45:26.553Z,60.11
2022-10-05T13:48:19.073Z,60.74
2022-10-05T13:50:56.476Z,61.81
2022-10-05T13:53:33.130Z,61.04
2022-10-05T13:56:08.040Z,62.23
2022-10-05T13:58:43.348Z,62.20
2022-10-05T14:01:19.203Z,62.64
2022-10-05T14:04:19.791Z,62.66
2022-10-05T14:06:49.562Z,62.41
2022-10-05T14:09:31.258Z,62.94
2022-10-05T14:12:17.174Z,62.34
2022-10-05T14:14:50.445Z,61.58
2022-10-05T14:17:41.879Z,61.43
2022-10-05T14:20:28.795Z,61.41
2022-10-05T14:23:01.725Z,62.42
2022-10-05T14:25:31.250Z,63.00
2022-10-05T14:28:05.214Z,62.32
2022-10-05T14:30:35.085Z,61.92
2022-10-05T14:33:17.345Z,61.32
2022-10-05T14:35:50.125Z,62.04
2022-10-05T14:38:22.591Z,61.57
2022-10-05T14:41:22.285Z,59.39
2022-10-05T14:43:53.122Z,60.10
2022-10-05T14:46:29.112Z,60.03
2022-10-05T14:49:22.167Z,60.85
2022-10-05T14:51:53.411Z,61.53
2022-10-05T14:54:32.487Z,60.84
2022-10-05T14:57:19.257Z,62.10
2022-10-05T15:00:07.624Z,61.34
2022-10-05T15:02:55.643Z,61.46
2022-10-05T15:05:33.049Z,61.79
2022-10-05T15:08:21.485Z,61.67
2022-10-05T15:10:58.155Z,61.16
2022-10-05T15:13:32.488Z,60.74
2022-10-05T15:16:07.419Z,59.48
2022-10-05T15:18:48.778Z,59.16
2022-10-05T15:21:40.594Z,59.26
2022-10-05T15:24:18.242Z,58.37
2022-10-05T15:26:51.538Z,58.64
2022-10-05T15:29:59.023Z,58.30
2022-10-05T15:32:44.672Z,57.27
2022-10-05T15:35:38.460Z,57.13
2022-10-05T15:38:20.929Z,59.92
2022-10-05T15:41:03.640Z,60.88
2022-10-05T15:43:46.562Z,60.69
2022-10-05T15:46:19.746Z,61.45
2022-10-05T15:49:01.712Z,61.21
2022-10-05T15:51:50.944Z,60.60
2022-10-05T15:54:58.793Z,60.17
2022-10-05T15:57:40.391Z,59.86
2022-10-05T16:00:12.814Z,60.99
2022-10-05T16:02:47.999Z,62.67
2022-10-05T16:05:53.110Z,62.37
2022-10-05T16:08:54.207Z,63.72
2022-10-05T16:11:45.570Z,64.53
2022-10-05T16:14:27.939Z,64.67
2022-10-05T16:17:21.213Z,65.79
2022-10-05T16:20:04.816Z,65.90
2022-10-05T16:22:47.380Z,65.51
2022-10-05T16:25:23.413Z,66.68
2022-10-05T16:28:07.465Z,67.28
2022-10-05T16:30:51.377Z,67.37
2022-10-05T16:33:29.310Z,68.02
2022-10-05T16:36:07.470Z,68.65
2022-10-05T16:38:45.682Z,68.13
2022-10-05T16:41:22.871Z,68.18
2022-10-05T16:44:00.361Z,67.95
2022-10-05T16:46:35.478Z,68.76
2022-10-05T16:49:15.729Z,67.83
2022-10-05T16:51:55.279Z,67.69
2022-10-05T16:54:27.999Z,68.04
2022-10-05T16:57:00.240Z,68.27
2022-10-05T17:00:08.921Z,68.09
2022-10-05T17:03:10.241Z,68.17
2022-10-05T17:06:09.445Z,70.03
2022-10-05T17:09:11.355Z,72.77
2022-10-05T17:11:59.091Z,74.44
2022-10-05T17:14:55.185Z,75.97
2022-10-05T17:17:38.471Z,77.08
2022-10-05T17:20:32.847Z,77.30
2022-10-05T17:23:32.978Z,77.81
2022-10-05T17:26:32.531Z,79.62
2022-10-05T17:29:10.261Z,80.03
2022-10-05T17:32:11.177Z,80.25
2022-10-05T17:34:41.199Z,80.35
2022-10-05T17:37:36.270Z,81.10
2022-10-05T17:40:34.219Z,82.18
2022-10-05T17:43:25.204Z,82.18
2022-10-05T17:46:00.628Z,82.72
2022-10-05T17:49:18.379Z,82.81
2022-10-05T17:52:21.425Z,83.52
2022-10-05T17:55:27.970Z,84.14
2022-10-05T17:58:02.070Z,84.34
2022-10-05T18:00:43.932Z,86.23
2022-10-05T18:03:36.330Z,86.59
2022-10-05T18:06:37.322Z,87.22
2022-10-05T18:09:33.898Z,87.11
2022-10-05T18:12:41.859Z,87.69
2022-10-05T18:15:48.802Z,87.22
2022-10-05T18:18:57.281Z,87.49
2022-10-05T18:21:39.867Z,87.80
2022-10-05T18:24:53.230Z,87.92
2022-10-05T18:28:05.375Z,88.25
2022-10-05T18:30:49.050Z,88.63
2022-10-05T18:33:46.913Z,89.74
2022-10-05T18:36:36.876Z,88.92
2022-10-05T18:39:24.768Z,89.92
2022-10-05T18:42:08.126Z,90.17
2022-10-05T18:44:42.758Z,90.27
2022-10-05T18:47:20.728Z,89.78
2022-10-05T18:50:16.647Z,90.19
2022-10-05T18:52:59.398Z,89.61
2022-10-05T18:55:34.666Z,89.17
2022-10-05T18:58:22.256Z,90.52
2022-10-05T19:01:44.471Z,91.50
2022-10-05T19:04:24.576Z,91.89
2022-10-05T19:07:05.923Z,91.56
2022-10-05T19:09:54.701Z,90.82
2022-10-05T19:12:41.269Z,89.79
2022-10-05T19:15:21.362Z,89.76
2022-10-05T19:18:44.419Z,90.29
2022-10-05T19:21:30.305Z,90.60
2022-10-05T19:24:21.908Z,91.73
2022-10-05T19:27:06.823Z,91.55
2022-10-05T19:30:08.705Z,92.44
2022-10-05T19:32:47.933Z,92.89
2022-10-05T19:35:28.883Z,92.29
2022-10-05T19:38:16.809Z,91.58
2022-10-05T19:40:57.664Z,91.83
2022-10-05T19:43:50.343Z,91.53
2022-10-05T19:46:30.848Z,91.10
2022-10-05T19:49:00.218Z,91.05
2022-10-05T19:51:30.965Z,90.20
2022-10-05T19:54:02.971Z,89.86
2022-10-05T19:56:35.250Z,89.99
2022-10-05T19:59:14.186Z,90.76
2022-10-05T20:01:49.020Z,90.46
2022-10-05T20:04:35.033Z,90.10
2022-10-05T20:07:04.115Z,89.78
2022-10-05T20:09:55.362Z,89.34
2022-10-05T20:12:24.101Z,88.75
2022-10-05T20:15:27.557Z,89.25
2022-10-05T20:18:26.869Z,89.20
2022-10-05T20:20:56.653Z,88.95
2022-10-05T20:23:28.001Z,88.86
2022-10-05T20:26:14.005Z,89.29
2022-10-05T20:28:44.413Z,88.87
2022-10-05T20:31:14.512Z,88.95
2022-10-05T20:33:44.176Z,89.61
2022-10-05T20:36:12.387Z,89.15
2022-10-05T20:38:41.285Z,89.56
2022-10-05T20:41:10.413Z,89.52
2022-10-05T20:43:39.456Z,89.69
2022-10-05T20:46:08.025Z,90.05
2022-10-05T20:48:36.565Z,90.38
2022-10-05T20:51:06.512Z,90.15
2022-10-05T20:53:34.753Z,90.12
2022-10-05T20:56:04.448Z,89.96
2022-10-05T20:58:32.662Z,89.94
2022-10-05T21:01:19.875Z,89.62
2022-10-05T21:03:48.559Z,88.90
2022-10-05T21:06:18.986Z,89.42
2022-10-05T21:08:47.347Z,90.17
2022-10-05T21:11:15.906Z,89.70
2022-10-05T21:13:45.795Z,90.63
2022-10-05T21:16:15.520Z,90.64
2022-10-05T21:18:46.922Z,91.04
2022-10-05T21:21:17.393Z,90.30
2022-10-05T21:23:45.801Z,92.06
2022-10-05T21:26:14.859Z,91.59
2022-10-05T21:28:43.293Z,92.78
2022-10-05T21:31:12.002Z,92.78
2022-10-05T21:33:40.275Z,91.89
2022-10-05T21:36:08.512Z,93.20
2022-10-05T21:38:38.209Z,92.46
2022-10-05T21:41:07.709Z,92.29
2022-10-05T21:43:36.099Z,93.17
2022-10-05T21:46:04.883Z,93.02
2022-10-05T21:48:34.873Z,92.03
2022-10-05T21:51:04.807Z,93.15
2022-10-05T21:53:38.921Z,93.29
2022-10-05T21:56:12.969Z,93.92
2022-10-05T21:58:43.747Z,93.74
2022-10-05T22:01:12.075Z,93.07
2022-10-05T22:03:43.284Z,92.59
2022-10-05T22:06:11.766Z,92.35
2022-10-05T22:08:41.488Z,92.94
2022-10-05T22:11:15.504Z,93.54
2022-10-05T22:13:46.172Z,93.66
2022-10-05T22:16:15.992Z,92.80
2022-10-05T22:18:44.493Z,93.77
2022-10-05T22:21:14.900Z,94.22
2022-10-05T22:23:46.875Z,94.28
2022-10-05T22:26:18.192Z,94.12
2022-10-05T22:28:48.076Z,94.22
2022-10-05T22:31:16.981Z,94.02
2022-10-05T22:33:45.233Z,93.30
2022-10-05T22:36:13.522Z,94.53
2022-10-05T22:38:41.842Z,94.12
2022-10-05T22:41:13.428Z,93.15
2022-10-05T22:43:41.910Z,94.00
2022-10-05T22:46:11.818Z,94.21
2022-10-05T22:48:40.567Z,94.42
2022-10-05T22:51:09.685Z,95.60
2022-10-05T22:53:38.218Z,95.11
2022-10-05T22:56:08.838Z,96.06
2022-10-05T22:58:42.057Z,95.74
2022-10-05T23:01:12.384Z,96.79
2022-10-05T23:03:41.123Z,96.47
2022-10-05T23:06:11.892Z,95.78
2022-10-05T23:08:41.120Z,96.87
2022-10-05T23:11:12.193Z,96.55
2022-10-05T23:13:42.711Z,97.18
2022-10-05T23:16:13.762Z,96.94
2022-10-05T23:18:42.853Z,96.21
2022-10-05T23:21:12.643Z,96.38
2022-10-05T23:23:47.255Z,97.23
2022-10-05T23:26:16.655Z,96.84
2022-10-05T23:28:47.518Z,97.68
2022-10-05T23:31:23.432Z,97.44
2022-10-05T23:33:52.134Z,97.42
2022-10-05T23:36:22.493Z,98.21
2022-10-05T23:38:51.133Z,98.15
2022-10-05T23:41:19.657Z,97.89
2022-10-05T23:43:49.523Z,97.64
2022-10-05T23:46:18.590Z,97.78
2022-10-05T23:48:47.228Z,98.32
2022-10-05T23:51:16.226Z,99.06
2022-10-05T23:53:44.729Z,99.68
2022-10-05T23:56:13.293Z,100.00
2022-10-05T23:58:41.842Z,100.00
